Aérodrome :
LOGIN :

S'inscrire | Disclaimer

   EN    FR    IT 

 










Légende :    VFR   VFR Marginal   IFR   IFR Intensif   IFR Très Intensif
Visi : 
Plafond : 
>= 8 km
>= 3000ft
5 à 8 km
1000 à 3000 ft
1500m à 5 km
500 à 1000 ft
800 à 1500m
200 à 500 ft
< 800m
< 200 ft
Symboles :   Orages  Brouillard  Fortes neiges  Fortes précipitations  Vent > 20 kt
SIGMETs :   Divers  Orages  Givrage  Turbulence  Onde Orograph.  Cendres Volcan.







- Altitude de l'aérodrome : 242 ft
- Code IATA : DUB


EIDW - Dublin

DERNIER METAR :
  • 210930Z 13013G25KT 100V160 9999 FEW022 17/09 Q1006 NOSIG

METARs EXPIRÉS :
  • 210900Z 13015G25KT 100V160 9999 FEW022 16/10 Q1007 NOSIG
  • 210830Z 13010KT 090V170 9999 FEW020 16/10 Q1007 NOSIG
  • 210800Z 12010KT 100V160 9999 FEW018 15/10 Q1008 NOSIG
  • 210730Z 13010KT 100V160 9999 FEW018 SCT040 15/10 Q1008 NOSIG
  • 210700Z 13011KT 100V160 9999 FEW040 SCT120 14/10 Q1008 NOSIG

TAF TAF EIDW
Valide du 21 à 06h jusqu'au 22 à 06h UTC


210500Z 2106/2206 13013KT 9999 FEW045
TEMPO 2106/2118 13017G30KT
BECMG 2119/2121 17013KT
BECMG 2122/2124 14008KT
TEMPO 2121/2206 4000 BKN010 BKN018CB
Pas de NOTAMs connus pour ce terrain.



MET'MAP, la Météo Aéronautique d'un coup d'oeil ! - Copyright ORBIFLY Décembre 2007 - Disclaimer

ORBIFLY MET'MAP TEAM :

Programmation & Développement : Alexandra Zaïnal
Conception & Développement : Baudouin d'Aumeries
Co-Programmation & Développement : Marc-Olivier Méhu
Soutien technique & logistique : Manuel Goepfert

Contact : metmap@orbifly.com




SOURCES & CREDITS :

   NOAA